sensor_id;sensor_type;location;lat;lon;timestamp;pressure;altitude;pressure_sealevel;temperature
19040;BMP180;9652;49.014;12.052;2023-05-29T00:00:11;97929.00;;;17.50
19040;BMP180;9652;49.014;12.052;2023-05-29T00:02:39;97931.00;;;17.40
19040;BMP180;9652;49.014;12.052;2023-05-29T00:05:10;97927.00;;;17.40
19040;BMP180;9652;49.014;12.052;2023-05-29T00:07:38;97930.00;;;17.40
19040;BMP180;9652;49.014;12.052;2023-05-29T00:10:06;97935.00;;;17.40
19040;BMP180;9652;49.014;12.052;2023-05-29T00:12:36;97955.00;;;17.40
19040;BMP180;9652;49.014;12.052;2023-05-29T00:15:05;97950.00;;;17.30
19040;BMP180;9652;49.014;12.052;2023-05-29T00:17:32;97951.00;;;17.30
19040;BMP180;9652;49.014;12.052;2023-05-29T00:19:59;97942.00;;;17.20
19040;BMP180;9652;49.014;12.052;2023-05-29T00:22:29;97941.00;;;17.00
19040;BMP180;9652;49.014;12.052;2023-05-29T00:24:56;97951.00;;;17.10
19040;BMP180;9652;49.014;12.052;2023-05-29T00:27:23;97939.00;;;17.10
19040;BMP180;9652;49.014;12.052;2023-05-29T00:29:51;97947.00;;;17.00
19040;BMP180;9652;49.014;12.052;2023-05-29T00:32:18;97968.00;;;17.00
19040;BMP180;9652;49.014;12.052;2023-05-29T00:34:45;97946.00;;;17.00
19040;BMP180;9652;49.014;12.052;2023-05-29T00:37:12;97960.00;;;17.00
19040;BMP180;9652;49.014;12.052;2023-05-29T00:39:39;97946.00;;;16.90
19040;BMP180;9652;49.014;12.052;2023-05-29T00:42:06;97950.00;;;16.90
19040;BMP180;9652;49.014;12.052;2023-05-29T00:44:33;97942.00;;;16.90
19040;BMP180;9652;49.014;12.052;2023-05-29T00:47:03;97930.00;;;16.90
19040;BMP180;9652;49.014;12.052;2023-05-29T00:49:30;97942.00;;;16.80
19040;BMP180;9652;49.014;12.052;2023-05-29T00:51:58;97941.00;;;16.80
19040;BMP180;9652;49.014;12.052;2023-05-29T00:54:28;97953.00;;;16.70
19040;BMP180;9652;49.014;12.052;2023-05-29T00:56:57;97938.00;;;16.70
19040;BMP180;9652;49.014;12.052;2023-05-29T00:59:26;97935.00;;;16.70
19040;BMP180;9652;49.014;12.052;2023-05-29T01:01:56;97920.00;;;16.70
19040;BMP180;9652;49.014;12.052;2023-05-29T01:04:26;97932.00;;;16.60
19040;BMP180;9652;49.014;12.052;2023-05-29T01:06:53;97945.00;;;16.60
19040;BMP180;9652;49.014;12.052;2023-05-29T01:09:21;97931.00;;;16.60
19040;BMP180;9652;49.014;12.052;2023-05-29T01:11:59;97931.00;;;16.60
19040;BMP180;9652;49.014;12.052;2023-05-29T01:14:52;97936.00;;;16.50
19040;BMP180;9652;49.014;12.052;2023-05-29T01:17:33;97944.00;;;16.50
19040;BMP180;9652;49.014;12.052;2023-05-29T01:20:18;97946.00;;;16.50
19040;BMP180;9652;49.014;12.052;2023-05-29T01:23:19;97947.00;;;16.50
19040;BMP180;9652;49.014;12.052;2023-05-29T01:26:07;97941.00;;;16.50
19040;BMP180;9652;49.014;12.052;2023-05-29T01:28:42;97937.00;;;16.50
19040;BMP180;9652;49.014;12.052;2023-05-29T01:31:14;97925.00;;;16.40
19040;BMP180;9652;49.014;12.052;2023-05-29T01:33:52;97928.00;;;16.40
19040;BMP180;9652;49.014;12.052;2023-05-29T01:36:19;97919.00;;;16.40
19040;BMP180;9652;49.014;12.052;2023-05-29T01:38:50;97923.00;;;16.40
19040;BMP180;9652;49.014;12.052;2023-05-29T01:41:19;97929.00;;;16.30
19040;BMP180;9652;49.014;12.052;2023-05-29T01:43:50;97927.00;;;16.30
19040;BMP180;9652;49.014;12.052;2023-05-29T01:46:20;97946.00;;;16.30
19040;BMP180;9652;49.014;12.052;2023-05-29T01:48:47;97916.00;;;16.20
19040;BMP180;9652;49.014;12.052;2023-05-29T01:51:15;97922.00;;;16.20
19040;BMP180;9652;49.014;12.052;2023-05-29T01:53:43;97925.00;;;16.20
19040;BMP180;9652;49.014;12.052;2023-05-29T01:56:11;97929.00;;;16.20
19040;BMP180;9652;49.014;12.052;2023-05-29T01:58:40;97927.00;;;16.20
19040;BMP180;9652;49.014;12.052;2023-05-29T02:01:10;97906.00;;;16.10
19040;BMP180;9652;49.014;12.052;2023-05-29T02:03:37;97873.00;;;16.10
19040;BMP180;9652;49.014;12.052;2023-05-29T02:06:05;97917.00;;;16.10
19040;BMP180;9652;49.014;12.052;2023-05-29T02:08:32;97923.00;;;16.00
19040;BMP180;9652;49.014;12.052;2023-05-29T02:10:59;97913.00;;;16.00
19040;BMP180;9652;49.014;12.052;2023-05-29T02:13:26;97916.00;;;16.00
19040;BMP180;9652;49.014;12.052;2023-05-29T02:15:53;97908.00;;;15.90
19040;BMP180;9652;49.014;12.052;2023-05-29T02:18:24;97909.00;;;15.90
19040;BMP180;9652;49.014;12.052;2023-05-29T02:20:51;97901.00;;;15.90
19040;BMP180;9652;49.014;12.052;2023-05-29T02:23:21;97898.00;;;15.90
19040;BMP180;9652;49.014;12.052;2023-05-29T02:25:50;97900.00;;;15.80
19040;BMP180;9652;49.014;12.052;2023-05-29T02:28:17;97897.00;;;15.80
19040;BMP180;9652;49.014;12.052;2023-05-29T02:30:45;97906.00;;;15.80
19040;BMP180;9652;49.014;12.052;2023-05-29T02:33:12;97902.00;;;15.70
19040;BMP180;9652;49.014;12.052;2023-05-29T02:35:40;97902.00;;;15.70
19040;BMP180;9652;49.014;12.052;2023-05-29T02:38:07;97901.00;;;15.70
19040;BMP180;9652;49.014;12.052;2023-05-29T02:40:34;97902.00;;;15.60
19040;BMP180;9652;49.014;12.052;2023-05-29T02:43:01;97896.00;;;15.60
19040;BMP180;9652;49.014;12.052;2023-05-29T02:45:30;97894.00;;;15.60
19040;BMP180;9652;49.014;12.052;2023-05-29T02:47:59;97897.00;;;15.50
19040;BMP180;9652;49.014;12.052;2023-05-29T02:50:26;97893.00;;;15.50
19040;BMP180;9652;49.014;12.052;2023-05-29T02:52:55;97896.00;;;15.50
19040;BMP180;9652;49.014;12.052;2023-05-29T02:55:22;97912.00;;;15.40
19040;BMP180;9652;49.014;12.052;2023-05-29T02:57:49;97902.00;;;15.40
19040;BMP180;9652;49.014;12.052;2023-05-29T03:00:21;97890.00;;;15.40
19040;BMP180;9652;49.014;12.052;2023-05-29T03:02:48;97907.00;;;15.30
19040;BMP180;9652;49.014;12.052;2023-05-29T03:05:15;97900.00;;;15.30
19040;BMP180;9652;49.014;12.052;2023-05-29T03:07:43;97889.00;;;15.30
19040;BMP180;9652;49.014;12.052;2023-05-29T03:10:12;97892.00;;;15.30
19040;BMP180;9652;49.014;12.052;2023-05-29T03:12:43;97889.00;;;15.20
19040;BMP180;9652;49.014;12.052;2023-05-29T03:15:10;97889.00;;;15.20
19040;BMP180;9652;49.014;12.052;2023-05-29T03:17:38;97887.00;;;15.20
19040;BMP180;9652;49.014;12.052;2023-05-29T03:20:11;97887.00;;;15.20
19040;BMP180;9652;49.014;12.052;2023-05-29T03:22:39;97888.00;;;15.10
19040;BMP180;9652;49.014;12.052;2023-05-29T03:25:07;97889.00;;;14.70
19040;BMP180;9652;49.014;12.052;2023-05-29T03:27:35;97877.00;;;15.10
19040;BMP180;9652;49.014;12.052;2023-05-29T03:30:09;97870.00;;;15.10
19040;BMP180;9652;49.014;12.052;2023-05-29T03:32:37;97893.00;;;15.10
19040;BMP180;9652;49.014;12.052;2023-05-29T03:35:05;97897.00;;;15.10
19040;BMP180;9652;49.014;12.052;2023-05-29T03:37:32;97892.00;;;15.10
19040;BMP180;9652;49.014;12.052;2023-05-29T03:39:59;97895.00;;;15.10
19040;BMP180;9652;49.014;12.052;2023-05-29T03:42:26;97882.00;;;15.10
19040;BMP180;9652;49.014;12.052;2023-05-29T03:44:56;97907.00;;;15.00
19040;BMP180;9652;49.014;12.052;2023-05-29T03:47:23;97902.00;;;15.00
19040;BMP180;9652;49.014;12.052;2023-05-29T03:49:52;97906.00;;;15.00
19040;BMP180;9652;49.014;12.052;2023-05-29T03:52:19;97907.00;;;15.00
19040;BMP180;9652;49.014;12.052;2023-05-29T03:54:47;97906.00;;;15.00
19040;BMP180;9652;49.014;12.052;2023-05-29T03:57:14;97901.00;;;15.00
19040;BMP180;9652;49.014;12.052;2023-05-29T03:59:43;97917.00;;;15.00
19040;BMP180;9652;49.014;12.052;2023-05-29T04:02:12;97913.00;;;15.00
19040;BMP180;9652;49.014;12.052;2023-05-29T04:04:39;97913.00;;;15.00
19040;BMP180;9652;49.014;12.052;2023-05-29T04:07:06;97918.00;;;15.00
19040;BMP180;9652;49.014;12.052;2023-05-29T04:09:33;97921.00;;;15.00
19040;BMP180;9652;49.014;12.052;2023-05-29T04:12:01;97893.00;;;15.10
19040;BMP180;9652;49.014;12.052;2023-05-29T04:14:29;97924.00;;;15.10
19040;BMP180;9652;49.014;12.052;2023-05-29T04:16:56;97921.00;;;15.10
19040;BMP180;9652;49.014;12.052;2023-05-29T04:19:24;97922.00;;;15.10
19040;BMP180;9652;49.014;12.052;2023-05-29T04:21:52;97927.00;;;15.10
19040;BMP180;9652;49.014;12.052;2023-05-29T04:24:19;97923.00;;;15.10
19040;BMP180;9652;49.014;12.052;2023-05-29T04:26:46;97931.00;;;15.20
19040;BMP180;9652;49.014;12.052;2023-05-29T04:29:13;97930.00;;;15.20
19040;BMP180;9652;49.014;12.052;2023-05-29T04:31:41;97936.00;;;14.80
19040;BMP180;9652;49.014;12.052;2023-05-29T04:34:09;97941.00;;;15.30
19040;BMP180;9652;49.014;12.052;2023-05-29T04:36:38;97942.00;;;15.40
19040;BMP180;9652;49.014;12.052;2023-05-29T04:39:11;97948.00;;;15.40
19040;BMP180;9652;49.014;12.052;2023-05-29T04:41:40;97954.00;;;15.40
19040;BMP180;9652;49.014;12.052;2023-05-29T04:44:10;97951.00;;;15.50
19040;BMP180;9652;49.014;12.052;2023-05-29T04:46:45;97960.00;;;15.50
19040;BMP180;9652;49.014;12.052;2023-05-29T04:49:14;97965.00;;;15.60
19040;BMP180;9652;49.014;12.052;2023-05-29T04:51:42;97965.00;;;15.70
19040;BMP180;9652;49.014;12.052;2023-05-29T04:54:11;97966.00;;;15.70
19040;BMP180;9652;49.014;12.052;2023-05-29T04:56:39;97967.00;;;15.30
19040;BMP180;9652;49.014;12.052;2023-05-29T04:59:08;97950.00;;;15.80
19040;BMP180;9652;49.014;12.052;2023-05-29T05:01:35;97948.00;;;15.90
19040;BMP180;9652;49.014;12.052;2023-05-29T05:04:04;97967.00;;;16.00
19040;BMP180;9652;49.014;12.052;2023-05-29T05:06:32;97956.00;;;16.00
19040;BMP180;9652;49.014;12.052;2023-05-29T05:09:00;97973.00;;;16.10
19040;BMP180;9652;49.014;12.052;2023-05-29T05:11:27;97962.00;;;16.20
19040;BMP180;9652;49.014;12.052;2023-05-29T05:13:55;97973.00;;;16.20
19040;BMP180;9652;49.014;12.052;2023-05-29T05:16:22;97975.00;;;16.30
19040;BMP180;9652;49.014;12.052;2023-05-29T05:18:49;97981.00;;;16.40
19040;BMP180;9652;49.014;12.052;2023-05-29T05:21:16;97992.00;;;16.40
19040;BMP180;9652;49.014;12.052;2023-05-29T05:23:45;97966.00;;;16.50
19040;BMP180;9652;49.014;12.052;2023-05-29T05:26:14;97982.00;;;16.50
19040;BMP180;9652;49.014;12.052;2023-05-29T05:28:42;97990.00;;;16.60
19040;BMP180;9652;49.014;12.052;2023-05-29T05:31:11;97991.00;;;16.70
19040;BMP180;9652;49.014;12.052;2023-05-29T05:33:38;97984.00;;;16.80
19040;BMP180;9652;49.014;12.052;2023-05-29T05:36:05;97989.00;;;16.80
19040;BMP180;9652;49.014;12.052;2023-05-29T05:38:33;97985.00;;;16.90
19040;BMP180;9652;49.014;12.052;2023-05-29T05:41:00;97978.00;;;17.00
19040;BMP180;9652;49.014;12.052;2023-05-29T05:43:32;97981.00;;;17.10
19040;BMP180;9652;49.014;12.052;2023-05-29T05:46:13;97981.00;;;17.20
19040;BMP180;9652;49.014;12.052;2023-05-29T05:48:42;97985.00;;;17.30
19040;BMP180;9652;49.014;12.052;2023-05-29T05:51:09;97985.00;;;17.40
19040;BMP180;9652;49.014;12.052;2023-05-29T05:53:37;97990.00;;;17.40
19040;BMP180;9652;49.014;12.052;2023-05-29T05:56:04;97992.00;;;17.50
19040;BMP180;9652;49.014;12.052;2023-05-29T05:58:33;97997.00;;;17.60
19040;BMP180;9652;49.014;12.052;2023-05-29T06:01:01;97992.00;;;17.70
19040;BMP180;9652;49.014;12.052;2023-05-29T06:03:28;97994.00;;;17.80
19040;BMP180;9652;49.014;12.052;2023-05-29T06:06:05;97996.00;;;17.90
19040;BMP180;9652;49.014;12.052;2023-05-29T06:08:33;97996.00;;;17.90
19040;BMP180;9652;49.014;12.052;2023-05-29T06:11:01;97983.00;;;18.00
19040;BMP180;9652;49.014;12.052;2023-05-29T06:13:29;97996.00;;;18.10
19040;BMP180;9652;49.014;12.052;2023-05-29T06:16:05;97986.00;;;18.20
19040;BMP180;9652;49.014;12.052;2023-05-29T06:18:32;98004.00;;;18.30
19040;BMP180;9652;49.014;12.052;2023-05-29T06:20:59;97999.00;;;18.30
19040;BMP180;9652;49.014;12.052;2023-05-29T06:23:27;98011.00;;;18.40
19040;BMP180;9652;49.014;12.052;2023-05-29T06:25:54;98013.00;;;18.50
19040;BMP180;9652;49.014;12.052;2023-05-29T06:28:21;98015.00;;;18.60
19040;BMP180;9652;49.014;12.052;2023-05-29T06:30:49;98009.00;;;18.60
19040;BMP180;9652;49.014;12.052;2023-05-29T06:33:19;98009.00;;;18.70
19040;BMP180;9652;49.014;12.052;2023-05-29T06:35:47;98005.00;;;18.80
19040;BMP180;9652;49.014;12.052;2023-05-29T06:38:15;98011.00;;;18.90
19040;BMP180;9652;49.014;12.052;2023-05-29T06:40:42;98010.00;;;19.00
19040;BMP180;9652;49.014;12.052;2023-05-29T06:43:10;98011.00;;;19.10
19040;BMP180;9652;49.014;12.052;2023-05-29T06:45:39;98016.00;;;19.10
19040;BMP180;9652;49.014;12.052;2023-05-29T06:48:06;98022.00;;;19.20
19040;BMP180;9652;49.014;12.052;2023-05-29T06:50:35;98017.00;;;19.30
19040;BMP180;9652;49.014;12.052;2023-05-29T06:53:24;98025.00;;;19.40
19040;BMP180;9652;49.014;12.052;2023-05-29T06:55:55;97984.00;;;19.50
19040;BMP180;9652;49.014;12.052;2023-05-29T06:58:22;98028.00;;;19.60
19040;BMP180;9652;49.014;12.052;2023-05-29T07:00:49;98027.00;;;19.60
19040;BMP180;9652;49.014;12.052;2023-05-29T07:03:26;98021.00;;;19.70
19040;BMP180;9652;49.014;12.052;2023-05-29T07:05:55;98013.00;;;19.80
19040;BMP180;9652;49.014;12.052;2023-05-29T07:08:23;98024.00;;;19.90
19040;BMP180;9652;49.014;12.052;2023-05-29T07:10:51;98030.00;;;20.00
19040;BMP180;9652;49.014;12.052;2023-05-29T07:13:20;98028.00;;;20.10
19040;BMP180;9652;49.014;12.052;2023-05-29T07:15:48;98038.00;;;20.20
19040;BMP180;9652;49.014;12.052;2023-05-29T07:18:21;98025.00;;;20.30
19040;BMP180;9652;49.014;12.052;2023-05-29T07:20:48;98030.00;;;20.40
19040;BMP180;9652;49.014;12.052;2023-05-29T07:23:19;98029.00;;;20.50
19040;BMP180;9652;49.014;12.052;2023-05-29T07:25:46;97974.00;;;20.50
19040;BMP180;9652;49.014;12.052;2023-05-29T07:28:14;98036.00;;;20.60
19040;BMP180;9652;49.014;12.052;2023-05-29T07:30:42;98032.00;;;20.70
19040;BMP180;9652;49.014;12.052;2023-05-29T07:33:09;98032.00;;;20.80
19040;BMP180;9652;49.014;12.052;2023-05-29T07:35:37;98021.00;;;20.80
19040;BMP180;9652;49.014;12.052;2023-05-29T07:38:04;98029.00;;;20.90
19040;BMP180;9652;49.014;12.052;2023-05-29T07:40:34;98025.00;;;21.00
19040;BMP180;9652;49.014;12.052;2023-05-29T07:43:10;98039.00;;;21.10
19040;BMP180;9652;49.014;12.052;2023-05-29T07:45:48;98030.00;;;21.20
19040;BMP180;9652;49.014;12.052;2023-05-29T07:48:15;98031.00;;;21.30
19040;BMP180;9652;49.014;12.052;2023-05-29T07:50:43;98025.00;;;21.40
19040;BMP180;9652;49.014;12.052;2023-05-29T07:53:10;98030.00;;;21.50
19040;BMP180;9652;49.014;12.052;2023-05-29T07:55:40;98025.00;;;21.40
19040;BMP180;9652;49.014;12.052;2023-05-29T07:58:07;98012.00;;;21.70
19040;BMP180;9652;49.014;12.052;2023-05-29T08:00:35;98030.00;;;21.80
19040;BMP180;9652;49.014;12.052;2023-05-29T08:03:03;98026.00;;;21.80
19040;BMP180;9652;49.014;12.052;2023-05-29T08:05:31;98024.00;;;21.90
19040;BMP180;9652;49.014;12.052;2023-05-29T08:08:00;98028.00;;;22.00
19040;BMP180;9652;49.014;12.052;2023-05-29T08:10:28;98032.00;;;22.10
19040;BMP180;9652;49.014;12.052;2023-05-29T08:12:56;98015.00;;;22.20
19040;BMP180;9652;49.014;12.052;2023-05-29T08:15:23;98021.00;;;22.30
19040;BMP180;9652;49.014;12.052;2023-05-29T08:17:52;98022.00;;;22.30
19040;BMP180;9652;49.014;12.052;2023-05-29T08:20:19;98022.00;;;22.40
19040;BMP180;9652;49.014;12.052;2023-05-29T08:22:46;98007.00;;;22.50
19040;BMP180;9652;49.014;12.052;2023-05-29T08:25:13;98022.00;;;22.50
19040;BMP180;9652;49.014;12.052;2023-05-29T08:27:40;98017.00;;;22.60
19040;BMP180;9652;49.014;12.052;2023-05-29T08:30:11;98011.00;;;22.70
19040;BMP180;9652;49.014;12.052;2023-05-29T08:32:38;98030.00;;;22.80
19040;BMP180;9652;49.014;12.052;2023-05-29T08:35:06;98016.00;;;22.80
19040;BMP180;9652;49.014;12.052;2023-05-29T08:37:33;98021.00;;;22.90
19040;BMP180;9652;49.014;12.052;2023-05-29T08:40:00;98016.00;;;23.00
19040;BMP180;9652;49.014;12.052;2023-05-29T08:42:40;98006.00;;;23.00
19040;BMP180;9652;49.014;12.052;2023-05-29T08:45:14;98030.00;;;23.10
19040;BMP180;9652;49.014;12.052;2023-05-29T08:47:41;98030.00;;;23.20
19040;BMP180;9652;49.014;12.052;2023-05-29T08:50:10;98015.00;;;23.30
19040;BMP180;9652;49.014;12.052;2023-05-29T08:52:38;98016.00;;;23.30
19040;BMP180;9652;49.014;12.052;2023-05-29T08:55:07;98030.00;;;23.40
19040;BMP180;9652;49.014;12.052;2023-05-29T08:57:37;98037.00;;;23.50
19040;BMP180;9652;49.014;12.052;2023-05-29T09:00:06;98037.00;;;23.50
19040;BMP180;9652;49.014;12.052;2023-05-29T09:02:39;98024.00;;;23.50
19040;BMP180;9652;49.014;12.052;2023-05-29T09:05:07;98039.00;;;23.50
19040;BMP180;9652;49.014;12.052;2023-05-29T09:07:36;98029.00;;;23.60
19040;BMP180;9652;49.014;12.052;2023-05-29T09:10:05;98034.00;;;23.60
19040;BMP180;9652;49.014;12.052;2023-05-29T09:12:33;98026.00;;;23.70
19040;BMP180;9652;49.014;12.052;2023-05-29T09:15:01;98045.00;;;23.70
19040;BMP180;9652;49.014;12.052;2023-05-29T09:17:31;98036.00;;;23.80
19040;BMP180;9652;49.014;12.052;2023-05-29T09:20:01;98039.00;;;23.80
19040;BMP180;9652;49.014;12.052;2023-05-29T09:22:31;98035.00;;;23.80
19040;BMP180;9652;49.014;12.052;2023-05-29T09:24:58;98034.00;;;23.90
19040;BMP180;9652;49.014;12.052;2023-05-29T09:27:25;98032.00;;;24.00
19040;BMP180;9652;49.014;12.052;2023-05-29T09:29:52;98034.00;;;24.00
19040;BMP180;9652;49.014;12.052;2023-05-29T09:32:19;98030.00;;;24.10
19040;BMP180;9652;49.014;12.052;2023-05-29T09:34:47;98030.00;;;24.20
19040;BMP180;9652;49.014;12.052;2023-05-29T09:37:15;98028.00;;;24.20
19040;BMP180;9652;49.014;12.052;2023-05-29T09:39:48;98028.00;;;24.30
19040;BMP180;9652;49.014;12.052;2023-05-29T09:42:16;98029.00;;;24.30
19040;BMP180;9652;49.014;12.052;2023-05-29T09:44:45;98034.00;;;24.30
19040;BMP180;9652;49.014;12.052;2023-05-29T09:47:14;98040.00;;;24.40
19040;BMP180;9652;49.014;12.052;2023-05-29T09:49:44;98026.00;;;24.50
19040;BMP180;9652;49.014;12.052;2023-05-29T09:52:12;98036.00;;;24.50
19040;BMP180;9652;49.014;12.052;2023-05-29T09:54:43;98029.00;;;24.50
19040;BMP180;9652;49.014;12.052;2023-05-29T09:57:13;98037.00;;;24.60
19040;BMP180;9652;49.014;12.052;2023-05-29T09:59:43;98039.00;;;24.60
19040;BMP180;9652;49.014;12.052;2023-05-29T10:02:11;98037.00;;;24.70
19040;BMP180;9652;49.014;12.052;2023-05-29T10:04:39;98042.00;;;24.70
19040;BMP180;9652;49.014;12.052;2023-05-29T10:07:11;98038.00;;;24.80
19040;BMP180;9652;49.014;12.052;2023-05-29T10:09:44;98042.00;;;24.80
19040;BMP180;9652;49.014;12.052;2023-05-29T10:12:19;98048.00;;;24.90
19040;BMP180;9652;49.014;12.052;2023-05-29T10:14:49;98042.00;;;24.90
19040;BMP180;9652;49.014;12.052;2023-05-29T10:17:25;98033.00;;;25.00
19040;BMP180;9652;49.014;12.052;2023-05-29T10:19:57;98032.00;;;25.10
19040;BMP180;9652;49.014;12.052;2023-05-29T10:22:28;98034.00;;;25.20
19040;BMP180;9652;49.014;12.052;2023-05-29T10:24:59;98028.00;;;25.20
19040;BMP180;9652;49.014;12.052;2023-05-29T10:27:27;98034.00;;;25.20
19040;BMP180;9652;49.014;12.052;2023-05-29T10:30:02;98029.00;;;25.30
19040;BMP180;9652;49.014;12.052;2023-05-29T10:32:44;98016.00;;;25.40
19040;BMP180;9652;49.014;12.052;2023-05-29T10:35:27;98012.00;;;25.40
19040;BMP180;9652;49.014;12.052;2023-05-29T10:38:08;98017.00;;;25.50
19040;BMP180;9652;49.014;12.052;2023-05-29T10:40:37;98031.00;;;25.60
19040;BMP180;9652;49.014;12.052;2023-05-29T10:43:04;98018.00;;;25.60
19040;BMP180;9652;49.014;12.052;2023-05-29T10:45:58;98017.00;;;25.60
19040;BMP180;9652;49.014;12.052;2023-05-29T10:48:37;98024.00;;;25.70
19040;BMP180;9652;49.014;12.052;2023-05-29T10:51:07;98025.00;;;25.80
19040;BMP180;9652;49.014;12.052;2023-05-29T10:53:35;98025.00;;;25.80
19040;BMP180;9652;49.014;12.052;2023-05-29T10:56:16;98030.00;;;25.80
19040;BMP180;9652;49.014;12.052;2023-05-29T10:58:53;98025.00;;;25.80
19040;BMP180;9652;49.014;12.052;2023-05-29T11:01:22;98023.00;;;25.90
19040;BMP180;9652;49.014;12.052;2023-05-29T11:03:50;98021.00;;;25.90
19040;BMP180;9652;49.014;12.052;2023-05-29T11:06:21;98011.00;;;26.00
19040;BMP180;9652;49.014;12.052;2023-05-29T11:08:55;98013.00;;;26.00
19040;BMP180;9652;49.014;12.052;2023-05-29T11:11:41;98013.00;;;26.10
19040;BMP180;9652;49.014;12.052;2023-05-29T11:14:09;98011.00;;;26.10
19040;BMP180;9652;49.014;12.052;2023-05-29T11:16:37;98009.00;;;26.10
19040;BMP180;9652;49.014;12.052;2023-05-29T11:19:06;98011.00;;;26.20
19040;BMP180;9652;49.014;12.052;2023-05-29T11:21:53;98003.00;;;26.20
19040;BMP180;9652;49.014;12.052;2023-05-29T11:24:25;98001.00;;;26.20
19040;BMP180;9652;49.014;12.052;2023-05-29T11:26:56;98012.00;;;26.30
19040;BMP180;9652;49.014;12.052;2023-05-29T11:29:28;97998.00;;;26.40
19040;BMP180;9652;49.014;12.052;2023-05-29T11:32:01;98011.00;;;26.40
19040;BMP180;9652;49.014;12.052;2023-05-29T11:34:31;98009.00;;;26.50
19040;BMP180;9652;49.014;12.052;2023-05-29T11:36:59;98011.00;;;26.50
19040;BMP180;9652;49.014;12.052;2023-05-29T11:39:27;98010.00;;;26.60
19040;BMP180;9652;49.014;12.052;2023-05-29T11:41:55;97999.00;;;26.60
19040;BMP180;9652;49.014;12.052;2023-05-29T11:44:24;98005.00;;;26.60
19040;BMP180;9652;49.014;12.052;2023-05-29T11:47:00;97997.00;;;26.60
19040;BMP180;9652;49.014;12.052;2023-05-29T11:49:29;97991.00;;;26.70
19040;BMP180;9652;49.014;12.052;2023-05-29T11:52:06;98000.00;;;26.30
19040;BMP180;9652;49.014;12.052;2023-05-29T11:54:34;97997.00;;;26.70
19040;BMP180;9652;49.014;12.052;2023-05-29T11:57:03;97992.00;;;26.80
19040;BMP180;9652;49.014;12.052;2023-05-29T11:59:32;97997.00;;;26.80
19040;BMP180;9652;49.014;12.052;2023-05-29T12:02:01;97994.00;;;26.90
19040;BMP180;9652;49.014;12.052;2023-05-29T12:04:28;97980.00;;;26.70
19040;BMP180;9652;49.014;12.052;2023-05-29T12:06:56;97959.00;;;27.00
19040;BMP180;9652;49.014;12.052;2023-05-29T12:09:27;97987.00;;;27.10
19040;BMP180;9652;49.014;12.052;2023-05-29T12:12:02;97986.00;;;27.20
19040;BMP180;9652;49.014;12.052;2023-05-29T12:14:29;97994.00;;;27.30
19040;BMP180;9652;49.014;12.052;2023-05-29T12:16:57;98002.00;;;27.40
19040;BMP180;9652;49.014;12.052;2023-05-29T12:19:24;97989.00;;;27.40
19040;BMP180;9652;49.014;12.052;2023-05-29T12:21:52;97999.00;;;27.50
19040;BMP180;9652;49.014;12.052;2023-05-29T12:24:19;97989.00;;;27.60
19040;BMP180;9652;49.014;12.052;2023-05-29T12:26:46;97992.00;;;27.60
19040;BMP180;9652;49.014;12.052;2023-05-29T12:29:15;97999.00;;;27.70
19040;BMP180;9652;49.014;12.052;2023-05-29T12:31:42;97985.00;;;27.70
19040;BMP180;9652;49.014;12.052;2023-05-29T12:34:12;98003.00;;;27.80
19040;BMP180;9652;49.014;12.052;2023-05-29T12:36:40;97981.00;;;27.80
19040;BMP180;9652;49.014;12.052;2023-05-29T12:39:08;97998.00;;;27.90
19040;BMP180;9652;49.014;12.052;2023-05-29T12:41:37;97983.00;;;27.90
19040;BMP180;9652;49.014;12.052;2023-05-29T12:44:06;97951.00;;;28.00
19040;BMP180;9652;49.014;12.052;2023-05-29T12:46:40;97996.00;;;28.00
19040;BMP180;9652;49.014;12.052;2023-05-29T12:49:13;97972.00;;;28.00
19040;BMP180;9652;49.014;12.052;2023-05-29T12:51:41;98000.00;;;28.00
19040;BMP180;9652;49.014;12.052;2023-05-29T12:54:09;97959.00;;;28.00
19040;BMP180;9652;49.014;12.052;2023-05-29T12:56:37;97982.00;;;28.00
19040;BMP180;9652;49.014;12.052;2023-05-29T12:59:06;97978.00;;;28.10
19040;BMP180;9652;49.014;12.052;2023-05-29T13:01:34;97995.00;;;28.10
19040;BMP180;9652;49.014;12.052;2023-05-29T13:04:03;97976.00;;;28.20
19040;BMP180;9652;49.014;12.052;2023-05-29T13:06:32;97986.00;;;28.30
19040;BMP180;9652;49.014;12.052;2023-05-29T13:08:59;97986.00;;;28.50
19040;BMP180;9652;49.014;12.052;2023-05-29T13:11:26;97981.00;;;28.60
19040;BMP180;9652;49.014;12.052;2023-05-29T13:13:53;97982.00;;;28.70
19040;BMP180;9652;49.014;12.052;2023-05-29T13:16:21;97979.00;;;28.90
19040;BMP180;9652;49.014;12.052;2023-05-29T13:18:48;97986.00;;;29.10
19040;BMP180;9652;49.014;12.052;2023-05-29T13:21:17;97986.00;;;29.20
19040;BMP180;9652;49.014;12.052;2023-05-29T13:23:44;97980.00;;;29.40
19040;BMP180;9652;49.014;12.052;2023-05-29T13:26:11;97975.00;;;29.60
19040;BMP180;9652;49.014;12.052;2023-05-29T13:28:38;97956.00;;;29.90
19040;BMP180;9652;49.014;12.052;2023-05-29T13:31:05;97964.00;;;30.20
19040;BMP180;9652;49.014;12.052;2023-05-29T13:33:32;97977.00;;;30.60
19040;BMP180;9652;49.014;12.052;2023-05-29T13:35:59;97973.00;;;30.90
19040;BMP180;9652;49.014;12.052;2023-05-29T13:38:28;97974.00;;;31.10
19040;BMP180;9652;49.014;12.052;2023-05-29T13:40:55;97974.00;;;31.50
19040;BMP180;9652;49.014;12.052;2023-05-29T13:43:22;97978.00;;;31.80
19040;BMP180;9652;49.014;12.052;2023-05-29T13:45:49;97969.00;;;32.10
19040;BMP180;9652;49.014;12.052;2023-05-29T13:48:16;97972.00;;;32.30
19040;BMP180;9652;49.014;12.052;2023-05-29T13:50:43;97965.00;;;32.60
19040;BMP180;9652;49.014;12.052;2023-05-29T13:53:10;97964.00;;;32.90
19040;BMP180;9652;49.014;12.052;2023-05-29T13:55:39;97962.00;;;33.20
19040;BMP180;9652;49.014;12.052;2023-05-29T13:58:06;97920.00;;;33.50
19040;BMP180;9652;49.014;12.052;2023-05-29T14:00:33;97959.00;;;33.70
19040;BMP180;9652;49.014;12.052;2023-05-29T14:03:00;97970.00;;;33.90
19040;BMP180;9652;49.014;12.052;2023-05-29T14:05:27;97963.00;;;34.00
19040;BMP180;9652;49.014;12.052;2023-05-29T14:07:54;97968.00;;;34.20
19040;BMP180;9652;49.014;12.052;2023-05-29T14:10:21;97956.00;;;34.30
19040;BMP180;9652;49.014;12.052;2023-05-29T14:12:50;97961.00;;;34.40
19040;BMP180;9652;49.014;12.052;2023-05-29T14:15:17;97954.00;;;34.40
19040;BMP180;9652;49.014;12.052;2023-05-29T14:17:44;97947.00;;;34.60
19040;BMP180;9652;49.014;12.052;2023-05-29T14:20:11;97959.00;;;34.80